sensor_id;sensor_type;location;lat;lon;timestamp;P1;durP1;ratioP1;P2;durP2;ratioP2
5999;SDS011;3028;49.468;7.694;2023-05-15T00:00:38;2.22;;;1.83;;
5999;SDS011;3028;49.468;7.694;2023-05-15T00:02:40;1.73;;;1.63;;
5999;SDS011;3028;49.468;7.694;2023-05-15T00:04:43;1.95;;;1.85;;
5999;SDS011;3028;49.468;7.694;2023-05-15T00:06:45;1.92;;;1.83;;
5999;SDS011;3028;49.468;7.694;2023-05-15T00:08:47;1.40;;;1.30;;
5999;SDS011;3028;49.468;7.694;2023-05-15T00:10:48;1.63;;;1.52;;
5999;SDS011;3028;49.468;7.694;2023-05-15T00:13:02;2.05;;;1.95;;
5999;SDS011;3028;49.468;7.694;2023-05-15T00:15:04;2.00;;;1.90;;
5999;SDS011;3028;49.468;7.694;2023-05-15T00:17:07;2.75;;;1.60;;
5999;SDS011;3028;49.468;7.694;2023-05-15T00:19:08;1.95;;;1.73;;
5999;SDS011;3028;49.468;7.694;2023-05-15T00:21:11;1.98;;;1.80;;
5999;SDS011;3028;49.468;7.694;2023-05-15T00:23:12;2.75;;;1.50;;
5999;SDS011;3028;49.468;7.694;2023-05-15T00:25:14;1.98;;;1.88;;
5999;SDS011;3028;49.468;7.694;2023-05-15T00:27:16;2.22;;;1.98;;
5999;SDS011;3028;49.468;7.694;2023-05-15T00:29:18;2.00;;;1.90;;
5999;SDS011;3028;49.468;7.694;2023-05-15T00:31:20;1.70;;;1.60;;
5999;SDS011;3028;49.468;7.694;2023-05-15T00:33:22;1.55;;;1.45;;
5999;SDS011;3028;49.468;7.694;2023-05-15T00:35:23;4.60;;;2.10;;
5999;SDS011;3028;49.468;7.694;2023-05-15T00:37:25;1.80;;;1.70;;
5999;SDS011;3028;49.468;7.694;2023-05-15T00:39:27;2.42;;;2.22;;
5999;SDS011;3028;49.468;7.694;2023-05-15T00:41:29;2.03;;;1.92;;
5999;SDS011;3028;49.468;7.694;2023-05-15T00:43:33;1.45;;;1.35;;
5999;SDS011;3028;49.468;7.694;2023-05-15T00:45:35;1.77;;;1.67;;
5999;SDS011;3028;49.468;7.694;2023-05-15T00:47:37;1.60;;;1.50;;
5999;SDS011;3028;49.468;7.694;2023-05-15T00:49:39;1.95;;;1.85;;
5999;SDS011;3028;49.468;7.694;2023-05-15T00:51:42;1.88;;;1.58;;
5999;SDS011;3028;49.468;7.694;2023-05-15T00:53:43;1.92;;;1.83;;
5999;SDS011;3028;49.468;7.694;2023-05-15T00:55:45;2.67;;;1.77;;
5999;SDS011;3028;49.468;7.694;2023-05-15T00:57:47;4.10;;;1.95;;
5999;SDS011;3028;49.468;7.694;2023-05-15T00:59:50;1.83;;;1.63;;
5999;SDS011;3028;49.468;7.694;2023-05-15T01:01:52;1.80;;;1.70;;
5999;SDS011;3028;49.468;7.694;2023-05-15T01:03:54;2.13;;;1.95;;
5999;SDS011;3028;49.468;7.694;2023-05-15T01:05:56;3.45;;;1.88;;
5999;SDS011;3028;49.468;7.694;2023-05-15T01:10:05;2.40;;;2.10;;
5999;SDS011;3028;49.468;7.694;2023-05-15T01:12:08;5.75;;;1.80;;
5999;SDS011;3028;49.468;7.694;2023-05-15T01:14:10;1.83;;;1.73;;
5999;SDS011;3028;49.468;7.694;2023-05-15T01:16:12;1.88;;;1.77;;
5999;SDS011;3028;49.468;7.694;2023-05-15T01:18:14;3.72;;;2.28;;
5999;SDS011;3028;49.468;7.694;2023-05-15T01:20:17;2.72;;;1.90;;
5999;SDS011;3028;49.468;7.694;2023-05-15T01:22:32;1.80;;;1.70;;
5999;SDS011;3028;49.468;7.694;2023-05-15T01:28:54;1.95;;;1.85;;
5999;SDS011;3028;49.468;7.694;2023-05-15T01:31:01;2.45;;;2.00;;
5999;SDS011;3028;49.468;7.694;2023-05-15T01:33:20;1.85;;;1.75;;
5999;SDS011;3028;49.468;7.694;2023-05-15T01:35:40;3.10;;;1.92;;
5999;SDS011;3028;49.468;7.694;2023-05-15T01:40:36;2.13;;;2.03;;
5999;SDS011;3028;49.468;7.694;2023-05-15T01:42:39;2.20;;;1.80;;
5999;SDS011;3028;49.468;7.694;2023-05-15T01:44:44;2.35;;;2.15;;
5999;SDS011;3028;49.468;7.694;2023-05-15T01:46:50;2.10;;;1.90;;
5999;SDS011;3028;49.468;7.694;2023-05-15T01:48:53;2.17;;;2.00;;
5999;SDS011;3028;49.468;7.694;2023-05-15T01:50:56;2.65;;;2.00;;
5999;SDS011;3028;49.468;7.694;2023-05-15T01:53:00;2.55;;;1.67;;
5999;SDS011;3028;49.468;7.694;2023-05-15T01:55:03;5.60;;;1.77;;
5999;SDS011;3028;49.468;7.694;2023-05-15T01:57:07;2.28;;;1.83;;
5999;SDS011;3028;49.468;7.694;2023-05-15T01:59:10;2.75;;;2.00;;
5999;SDS011;3028;49.468;7.694;2023-05-15T02:01:13;4.70;;;1.60;;
5999;SDS011;3028;49.468;7.694;2023-05-15T02:03:16;1.67;;;1.58;;
5999;SDS011;3028;49.468;7.694;2023-05-15T02:05:19;5.10;;;2.03;;
5999;SDS011;3028;49.468;7.694;2023-05-15T02:07:22;1.80;;;1.70;;
5999;SDS011;3028;49.468;7.694;2023-05-15T02:09:24;2.97;;;1.70;;
5999;SDS011;3028;49.468;7.694;2023-05-15T02:11:26;2.95;;;2.00;;
5999;SDS011;3028;49.468;7.694;2023-05-15T02:13:28;1.90;;;1.80;;
5999;SDS011;3028;49.468;7.694;2023-05-15T02:15:31;2.38;;;2.17;;
5999;SDS011;3028;49.468;7.694;2023-05-15T02:17:33;4.05;;;3.15;;
5999;SDS011;3028;49.468;7.694;2023-05-15T02:19:35;2.35;;;1.60;;
5999;SDS011;3028;49.468;7.694;2023-05-15T02:21:37;1.88;;;1.70;;
5999;SDS011;3028;49.468;7.694;2023-05-15T02:23:38;2.00;;;1.90;;
5999;SDS011;3028;49.468;7.694;2023-05-15T02:28:01;1.80;;;1.70;;
5999;SDS011;3028;49.468;7.694;2023-05-15T02:32:32;2.90;;;2.70;;
5999;SDS011;3028;49.468;7.694;2023-05-15T02:36:48;3.58;;;1.92;;
5999;SDS011;3028;49.468;7.694;2023-05-15T02:38:52;2.00;;;1.77;;
5999;SDS011;3028;49.468;7.694;2023-05-15T02:40:55;4.93;;;2.17;;
5999;SDS011;3028;49.468;7.694;2023-05-15T02:42:57;2.40;;;2.20;;
5999;SDS011;3028;49.468;7.694;2023-05-15T02:44:59;2.85;;;2.65;;
5999;SDS011;3028;49.468;7.694;2023-05-15T02:47:02;2.47;;;2.28;;
5999;SDS011;3028;49.468;7.694;2023-05-15T02:49:05;2.10;;;1.90;;
5999;SDS011;3028;49.468;7.694;2023-05-15T02:51:07;4.07;;;1.60;;
5999;SDS011;3028;49.468;7.694;2023-05-15T02:53:09;1.88;;;1.73;;
5999;SDS011;3028;49.468;7.694;2023-05-15T02:55:12;2.50;;;2.28;;
5999;SDS011;3028;49.468;7.694;2023-05-15T02:57:13;1.95;;;1.85;;
5999;SDS011;3028;49.468;7.694;2023-05-15T02:59:15;3.20;;;2.30;;
5999;SDS011;3028;49.468;7.694;2023-05-15T03:01:20;1.95;;;1.80;;
5999;SDS011;3028;49.468;7.694;2023-05-15T03:03:22;2.67;;;2.47;;
5999;SDS011;3028;49.468;7.694;2023-05-15T03:05:23;3.90;;;2.25;;
5999;SDS011;3028;49.468;7.694;2023-05-15T03:07:26;2.40;;;2.13;;
5999;SDS011;3028;49.468;7.694;2023-05-15T03:09:28;3.35;;;2.40;;
5999;SDS011;3028;49.468;7.694;2023-05-15T03:11:30;1.88;;;1.77;;
5999;SDS011;3028;49.468;7.694;2023-05-15T03:13:32;2.22;;;2.13;;
5999;SDS011;3028;49.468;7.694;2023-05-15T03:15:34;2.25;;;2.08;;
5999;SDS011;3028;49.468;7.694;2023-05-15T03:17:36;3.42;;;1.83;;
5999;SDS011;3028;49.468;7.694;2023-05-15T03:19:38;2.65;;;2.45;;
5999;SDS011;3028;49.468;7.694;2023-05-15T03:21:39;3.22;;;2.92;;
5999;SDS011;3028;49.468;7.694;2023-05-15T03:23:41;3.03;;;2.83;;
5999;SDS011;3028;49.468;7.694;2023-05-15T03:25:43;2.92;;;2.40;;
5999;SDS011;3028;49.468;7.694;2023-05-15T03:27:45;4.80;;;2.78;;
5999;SDS011;3028;49.468;7.694;2023-05-15T03:29:46;2.35;;;2.15;;
5999;SDS011;3028;49.468;7.694;2023-05-15T03:31:51;2.58;;;2.38;;
5999;SDS011;3028;49.468;7.694;2023-05-15T03:33:53;2.33;;;2.13;;
5999;SDS011;3028;49.468;7.694;2023-05-15T03:35:54;2.55;;;2.35;;
5999;SDS011;3028;49.468;7.694;2023-05-15T03:37:56;2.50;;;2.40;;
5999;SDS011;3028;49.468;7.694;2023-05-15T03:39:58;2.13;;;2.03;;
5999;SDS011;3028;49.468;7.694;2023-05-15T03:42:00;2.00;;;1.90;;
5999;SDS011;3028;49.468;7.694;2023-05-15T03:44:02;2.45;;;2.03;;
5999;SDS011;3028;49.468;7.694;2023-05-15T03:46:04;2.58;;;2.30;;
5999;SDS011;3028;49.468;7.694;2023-05-15T03:48:06;2.30;;;2.05;;
5999;SDS011;3028;49.468;7.694;2023-05-15T03:50:08;2.95;;;2.75;;
5999;SDS011;3028;49.468;7.694;2023-05-15T03:52:10;2.50;;;2.33;;
5999;SDS011;3028;49.468;7.694;2023-05-15T03:54:12;2.28;;;2.17;;
5999;SDS011;3028;49.468;7.694;2023-05-15T03:56:14;2.55;;;2.38;;
5999;SDS011;3028;49.468;7.694;2023-05-15T03:58:16;2.60;;;2.42;;
5999;SDS011;3028;49.468;7.694;2023-05-15T04:00:18;2.72;;;2.42;;
5999;SDS011;3028;49.468;7.694;2023-05-15T04:02:19;2.25;;;2.00;;
5999;SDS011;3028;49.468;7.694;2023-05-15T04:04:21;3.35;;;2.63;;
5999;SDS011;3028;49.468;7.694;2023-05-15T04:06:23;2.85;;;2.65;;
5999;SDS011;3028;49.468;7.694;2023-05-15T04:08:25;10.07;;;2.28;;
5999;SDS011;3028;49.468;7.694;2023-05-15T04:10:27;3.75;;;2.42;;
5999;SDS011;3028;49.468;7.694;2023-05-15T04:12:33;2.70;;;2.50;;
5999;SDS011;3028;49.468;7.694;2023-05-15T04:14:35;3.35;;;2.40;;
5999;SDS011;3028;49.468;7.694;2023-05-15T04:16:37;2.53;;;2.33;;
5999;SDS011;3028;49.468;7.694;2023-05-15T04:18:39;2.70;;;2.35;;
5999;SDS011;3028;49.468;7.694;2023-05-15T04:20:40;2.35;;;2.25;;
5999;SDS011;3028;49.468;7.694;2023-05-15T04:22:42;2.75;;;2.35;;
5999;SDS011;3028;49.468;7.694;2023-05-15T04:24:45;3.13;;;2.25;;
5999;SDS011;3028;49.468;7.694;2023-05-15T04:26:46;3.13;;;2.75;;
5999;SDS011;3028;49.468;7.694;2023-05-15T04:28:48;2.08;;;1.98;;
5999;SDS011;3028;49.468;7.694;2023-05-15T04:31:03;2.70;;;2.50;;
5999;SDS011;3028;49.468;7.694;2023-05-15T04:33:05;3.10;;;2.35;;
5999;SDS011;3028;49.468;7.694;2023-05-15T04:35:08;2.05;;;1.95;;
5999;SDS011;3028;49.468;7.694;2023-05-15T04:37:12;3.78;;;3.58;;
5999;SDS011;3028;49.468;7.694;2023-05-15T04:39:14;3.25;;;3.00;;
5999;SDS011;3028;49.468;7.694;2023-05-15T04:41:16;3.22;;;2.83;;
5999;SDS011;3028;49.468;7.694;2023-05-15T04:43:19;3.35;;;3.05;;
5999;SDS011;3028;49.468;7.694;2023-05-15T04:45:21;4.00;;;3.00;;
5999;SDS011;3028;49.468;7.694;2023-05-15T04:47:25;9.30;;;2.75;;
5999;SDS011;3028;49.468;7.694;2023-05-15T04:49:26;3.28;;;2.80;;
5999;SDS011;3028;49.468;7.694;2023-05-15T04:51:28;3.15;;;2.85;;
5999;SDS011;3028;49.468;7.694;2023-05-15T04:53:30;2.70;;;2.50;;
5999;SDS011;3028;49.468;7.694;2023-05-15T04:55:31;2.40;;;2.20;;
5999;SDS011;3028;49.468;7.694;2023-05-15T04:57:34;3.78;;;3.40;;
5999;SDS011;3028;49.468;7.694;2023-05-15T04:59:36;6.28;;;2.95;;
5999;SDS011;3028;49.468;7.694;2023-05-15T05:01:37;3.08;;;2.65;;
5999;SDS011;3028;49.468;7.694;2023-05-15T05:03:39;7.25;;;2.63;;
5999;SDS011;3028;49.468;7.694;2023-05-15T05:05:41;3.42;;;2.83;;
5999;SDS011;3028;49.468;7.694;2023-05-15T05:07:43;3.45;;;2.95;;
5999;SDS011;3028;49.468;7.694;2023-05-15T05:09:46;3.42;;;3.15;;
5999;SDS011;3028;49.468;7.694;2023-05-15T05:11:51;3.08;;;2.88;;
5999;SDS011;3028;49.468;7.694;2023-05-15T05:13:53;2.92;;;2.65;;
5999;SDS011;3028;49.468;7.694;2023-05-15T05:15:56;6.00;;;3.22;;
5999;SDS011;3028;49.468;7.694;2023-05-15T05:17:58;4.40;;;3.42;;
5999;SDS011;3028;49.468;7.694;2023-05-15T05:20:00;3.17;;;2.92;;
5999;SDS011;3028;49.468;7.694;2023-05-15T05:22:03;2.95;;;2.75;;
5999;SDS011;3028;49.468;7.694;2023-05-15T05:24:06;3.42;;;3.15;;
5999;SDS011;3028;49.468;7.694;2023-05-15T05:26:07;4.53;;;3.20;;
5999;SDS011;3028;49.468;7.694;2023-05-15T05:28:09;5.18;;;3.63;;
5999;SDS011;3028;49.468;7.694;2023-05-15T05:30:11;9.20;;;3.80;;
5999;SDS011;3028;49.468;7.694;2023-05-15T05:32:13;3.15;;;2.95;;
5999;SDS011;3028;49.468;7.694;2023-05-15T05:34:15;5.72;;;3.83;;
5999;SDS011;3028;49.468;7.694;2023-05-15T05:36:17;10.13;;;3.35;;
5999;SDS011;3028;49.468;7.694;2023-05-15T05:38:21;9.50;;;3.78;;
5999;SDS011;3028;49.468;7.694;2023-05-15T05:40:24;3.83;;;3.30;;
5999;SDS011;3028;49.468;7.694;2023-05-15T05:42:26;9.32;;;3.58;;
5999;SDS011;3028;49.468;7.694;2023-05-15T05:44:29;5.20;;;3.58;;
5999;SDS011;3028;49.468;7.694;2023-05-15T05:46:36;9.18;;;3.63;;
5999;SDS011;3028;49.468;7.694;2023-05-15T05:48:39;4.47;;;3.05;;
5999;SDS011;3028;49.468;7.694;2023-05-15T05:50:41;3.47;;;3.15;;
5999;SDS011;3028;49.468;7.694;2023-05-15T05:52:47;3.13;;;2.92;;
5999;SDS011;3028;49.468;7.694;2023-05-15T05:54:49;5.53;;;3.28;;
5999;SDS011;3028;49.468;7.694;2023-05-15T05:56:52;4.32;;;3.42;;
5999;SDS011;3028;49.468;7.694;2023-05-15T05:58:54;4.30;;;2.67;;
5999;SDS011;3028;49.468;7.694;2023-05-15T06:00:57;2.95;;;2.75;;
5999;SDS011;3028;49.468;7.694;2023-05-15T06:03:01;3.05;;;2.80;;
5999;SDS011;3028;49.468;7.694;2023-05-15T06:05:03;3.70;;;3.38;;
5999;SDS011;3028;49.468;7.694;2023-05-15T06:07:09;4.32;;;3.53;;
5999;SDS011;3028;49.468;7.694;2023-05-15T06:09:15;3.05;;;2.85;;
5999;SDS011;3028;49.468;7.694;2023-05-15T06:11:17;3.65;;;2.60;;
5999;SDS011;3028;49.468;7.694;2023-05-15T06:13:20;3.60;;;2.65;;
5999;SDS011;3028;49.468;7.694;2023-05-15T06:15:23;2.97;;;2.75;;
5999;SDS011;3028;49.468;7.694;2023-05-15T06:17:25;2.92;;;2.72;;
5999;SDS011;3028;49.468;7.694;2023-05-15T06:19:30;2.72;;;2.53;;
5999;SDS011;3028;49.468;7.694;2023-05-15T06:21:33;2.78;;;2.58;;
5999;SDS011;3028;49.468;7.694;2023-05-15T06:23:35;2.97;;;2.30;;
5999;SDS011;3028;49.468;7.694;2023-05-15T06:25:41;2.53;;;1.95;;
5999;SDS011;3028;49.468;7.694;2023-05-15T06:27:43;3.33;;;1.98;;
5999;SDS011;3028;49.468;7.694;2023-05-15T06:29:45;2.47;;;2.28;;
5999;SDS011;3028;49.468;7.694;2023-05-15T06:31:47;2.80;;;2.00;;
5999;SDS011;3028;49.468;7.694;2023-05-15T06:33:49;2.17;;;1.98;;
5999;SDS011;3028;49.468;7.694;2023-05-15T06:35:51;2.38;;;2.17;;
5999;SDS011;3028;49.468;7.694;2023-05-15T06:37:53;2.30;;;2.10;;
5999;SDS011;3028;49.468;7.694;2023-05-15T06:39:57;2.40;;;2.05;;
5999;SDS011;3028;49.468;7.694;2023-05-15T06:41:59;2.47;;;2.28;;
5999;SDS011;3028;49.468;7.694;2023-05-15T06:44:02;3.03;;;2.83;;
5999;SDS011;3028;49.468;7.694;2023-05-15T06:46:04;2.20;;;2.10;;
5999;SDS011;3028;49.468;7.694;2023-05-15T06:48:06;3.35;;;1.83;;
5999;SDS011;3028;49.468;7.694;2023-05-15T06:50:08;3.83;;;2.67;;
5999;SDS011;3028;49.468;7.694;2023-05-15T06:52:10;3.10;;;2.25;;
5999;SDS011;3028;49.468;7.694;2023-05-15T06:54:12;4.85;;;3.97;;
5999;SDS011;3028;49.468;7.694;2023-05-15T06:56:14;2.92;;;2.50;;
5999;SDS011;3028;49.468;7.694;2023-05-15T06:58:16;2.80;;;2.40;;
5999;SDS011;3028;49.468;7.694;2023-05-15T07:00:18;5.88;;;2.30;;
5999;SDS011;3028;49.468;7.694;2023-05-15T07:02:20;2.92;;;2.05;;
5999;SDS011;3028;49.468;7.694;2023-05-15T07:04:22;3.03;;;2.25;;
5999;SDS011;3028;49.468;7.694;2023-05-15T07:06:24;3.42;;;2.55;;
5999;SDS011;3028;49.468;7.694;2023-05-15T07:08:27;2.72;;;2.53;;
5999;SDS011;3028;49.468;7.694;2023-05-15T07:10:30;2.30;;;2.10;;
5999;SDS011;3028;49.468;7.694;2023-05-15T07:12:32;2.83;;;2.10;;
5999;SDS011;3028;49.468;7.694;2023-05-15T07:14:34;2.05;;;1.95;;
5999;SDS011;3028;49.468;7.694;2023-05-15T07:16:36;3.20;;;2.15;;
5999;SDS011;3028;49.468;7.694;2023-05-15T07:18:38;3.10;;;2.85;;
5999;SDS011;3028;49.468;7.694;2023-05-15T07:20:39;3.03;;;2.80;;
5999;SDS011;3028;49.468;7.694;2023-05-15T07:22:41;2.85;;;2.65;;
5999;SDS011;3028;49.468;7.694;2023-05-15T07:24:56;3.85;;;3.20;;
5999;SDS011;3028;49.468;7.694;2023-05-15T07:26:57;3.75;;;3.13;;
5999;SDS011;3028;49.468;7.694;2023-05-15T07:28:59;3.05;;;2.75;;
5999;SDS011;3028;49.468;7.694;2023-05-15T07:31:01;5.18;;;2.63;;
5999;SDS011;3028;49.468;7.694;2023-05-15T07:33:03;3.65;;;2.80;;
5999;SDS011;3028;49.468;7.694;2023-05-15T07:35:05;4.07;;;3.22;;
5999;SDS011;3028;49.468;7.694;2023-05-15T07:37:07;4.18;;;3.25;;
5999;SDS011;3028;49.468;7.694;2023-05-15T07:39:09;3.25;;;3.00;;
5999;SDS011;3028;49.468;7.694;2023-05-15T07:41:10;3.28;;;3.08;;
5999;SDS011;3028;49.468;7.694;2023-05-15T07:43:12;2.88;;;2.67;;
5999;SDS011;3028;49.468;7.694;2023-05-15T07:45:17;3.08;;;2.85;;
5999;SDS011;3028;49.468;7.694;2023-05-15T07:47:21;2.58;;;2.25;;
5999;SDS011;3028;49.468;7.694;2023-05-15T07:49:23;3.70;;;3.17;;
5999;SDS011;3028;49.468;7.694;2023-05-15T07:51:25;3.45;;;3.15;;
5999;SDS011;3028;49.468;7.694;2023-05-15T07:53:26;2.67;;;2.38;;
5999;SDS011;3028;49.468;7.694;2023-05-15T07:55:28;3.28;;;2.90;;
5999;SDS011;3028;49.468;7.694;2023-05-15T07:57:31;2.55;;;2.35;;
5999;SDS011;3028;49.468;7.694;2023-05-15T07:59:33;2.75;;;2.53;;
5999;SDS011;3028;49.468;7.694;2023-05-15T08:01:35;3.28;;;2.95;;
5999;SDS011;3028;49.468;7.694;2023-05-15T08:03:37;3.95;;;3.53;;
5999;SDS011;3028;49.468;7.694;2023-05-15T08:05:39;3.80;;;3.40;;
5999;SDS011;3028;49.468;7.694;2023-05-15T08:07:41;3.50;;;3.08;;
5999;SDS011;3028;49.468;7.694;2023-05-15T08:09:42;3.13;;;2.83;;
5999;SDS011;3028;49.468;7.694;2023-05-15T08:11:44;4.05;;;3.75;;
5999;SDS011;3028;49.468;7.694;2023-05-15T08:13:46;3.50;;;3.10;;
5999;SDS011;3028;49.468;7.694;2023-05-15T08:15:48;4.47;;;4.18;;
5999;SDS011;3028;49.468;7.694;2023-05-15T08:17:50;3.67;;;3.38;;
5999;SDS011;3028;49.468;7.694;2023-05-15T08:19:52;3.70;;;3.40;;
5999;SDS011;3028;49.468;7.694;2023-05-15T08:21:54;3.83;;;3.53;;
5999;SDS011;3028;49.468;7.694;2023-05-15T08:23:56;3.45;;;3.20;;
5999;SDS011;3028;49.468;7.694;2023-05-15T08:25:59;3.85;;;3.20;;
5999;SDS011;3028;49.468;7.694;2023-05-15T08:28:01;3.35;;;3.15;;
5999;SDS011;3028;49.468;7.694;2023-05-15T08:30:04;3.40;;;3.10;;
5999;SDS011;3028;49.468;7.694;2023-05-15T08:32:13;3.88;;;3.58;;
5999;SDS011;3028;49.468;7.694;2023-05-15T08:34:15;4.22;;;3.92;;
5999;SDS011;3028;49.468;7.694;2023-05-15T08:36:17;4.22;;;3.25;;
5999;SDS011;3028;49.468;7.694;2023-05-15T08:38:20;3.50;;;3.17;;
5999;SDS011;3028;49.468;7.694;2023-05-15T08:40:22;3.38;;;3.17;;
5999;SDS011;3028;49.468;7.694;2023-05-15T08:42:44;3.53;;;3.33;;
5999;SDS011;3028;49.468;7.694;2023-05-15T08:44:48;3.75;;;3.45;;
5999;SDS011;3028;49.468;7.694;2023-05-15T08:46:51;4.95;;;3.92;;
5999;SDS011;3028;49.468;7.694;2023-05-15T08:48:55;4.00;;;3.67;;
5999;SDS011;3028;49.468;7.694;2023-05-15T08:50:57;4.18;;;3.80;;
5999;SDS011;3028;49.468;7.694;2023-05-15T08:53:00;3.97;;;3.67;;
5999;SDS011;3028;49.468;7.694;2023-05-15T08:55:02;3.47;;;3.28;;
5999;SDS011;3028;49.468;7.694;2023-05-15T08:57:05;4.32;;;3.50;;
5999;SDS011;3028;49.468;7.694;2023-05-15T08:59:08;3.45;;;3.15;;
5999;SDS011;3028;49.468;7.694;2023-05-15T09:01:12;4.10;;;3.80;;
5999;SDS011;3028;49.468;7.694;2023-05-15T09:03:19;4.20;;;3.63;;
5999;SDS011;3028;49.468;7.694;2023-05-15T09:05:29;4.55;;;3.60;;
5999;SDS011;3028;49.468;7.694;2023-05-15T09:07:33;7.05;;;3.35;;
5999;SDS011;3028;49.468;7.694;2023-05-15T09:09:37;4.07;;;3.78;;
5999;SDS011;3028;49.468;7.694;2023-05-15T09:11:43;4.05;;;3.70;;
5999;SDS011;3028;49.468;7.694;2023-05-15T09:13:46;3.53;;;3.22;;
5999;SDS011;3028;49.468;7.694;2023-05-15T09:15:48;2.75;;;2.53;;
5999;SDS011;3028;49.468;7.694;2023-05-15T09:17:51;3.50;;;3.20;;
5999;SDS011;3028;49.468;7.694;2023-05-15T09:19:53;2.85;;;2.65;;
5999;SDS011;3028;49.468;7.694;2023-05-15T09:21:55;3.33;;;2.60;;
5999;SDS011;3028;49.468;7.694;2023-05-15T09:24:24;3.08;;;2.42;;
5999;SDS011;3028;49.468;7.694;2023-05-15T09:26:28;1.80;;;1.70;;
5999;SDS011;3028;49.468;7.694;2023-05-15T09:28:31;1.90;;;1.80;;
5999;SDS011;3028;49.468;7.694;2023-05-15T09:30:38;2.88;;;1.83;;
5999;SDS011;3028;49.468;7.694;2023-05-15T09:32:43;2.08;;;1.88;;
5999;SDS011;3028;49.468;7.694;2023-05-15T09:34:45;3.67;;;2.63;;
5999;SDS011;3028;49.468;7.694;2023-05-15T09:36:47;2.47;;;2.28;;
5999;SDS011;3028;49.468;7.694;2023-05-15T09:38:51;2.60;;;1.95;;
5999;SDS011;3028;49.468;7.694;2023-05-15T09:41:03;7.53;;;2.13;;
5999;SDS011;3028;49.468;7.694;2023-05-15T09:43:05;2.55;;;2.35;;
5999;SDS011;3028;49.468;7.694;2023-05-15T09:45:12;2.17;;;1.92;;
5999;SDS011;3028;49.468;7.694;2023-05-15T09:47:18;2.38;;;2.17;;
5999;SDS011;3028;49.468;7.694;2023-05-15T09:49:20;2.83;;;2.63;;
5999;SDS011;3028;49.468;7.694;2023-05-15T09:51:21;2.47;;;2.15;;
5999;SDS011;3028;49.468;7.694;2023-05-15T09:53:23;3.05;;;2.83;;
5999;SDS011;3028;49.468;7.694;2023-05-15T09:55:25;3.83;;;2.60;;
5999;SDS011;3028;49.468;7.694;2023-05-15T09:57:27;2.70;;;2.50;;
5999;SDS011;3028;49.468;7.694;2023-05-15T09:59:29;3.28;;;2.95;;
5999;SDS011;3028;49.468;7.694;2023-05-15T10:01:32;3.90;;;3.53;;
5999;SDS011;3028;49.468;7.694;2023-05-15T10:03:36;4.10;;;3.80;;
5999;SDS011;3028;49.468;7.694;2023-05-15T10:05:38;5.10;;;4.45;;
5999;SDS011;3028;49.468;7.694;2023-05-15T10:07:44;4.97;;;4.65;;
5999;SDS011;3028;49.468;7.694;2023-05-15T10:09:46;3.95;;;3.65;;
5999;SDS011;3028;49.468;7.694;2023-05-15T10:11:49;8.77;;;3.38;;
5999;SDS011;3028;49.468;7.694;2023-05-15T10:13:58;5.65;;;4.10;;
5999;SDS011;3028;49.468;7.694;2023-05-15T10:16:03;6.55;;;5.38;;
5999;SDS011;3028;49.468;7.694;2023-05-15T10:18:06;5.72;;;5.25;;
5999;SDS011;3028;49.468;7.694;2023-05-15T10:20:08;4.97;;;3.67;;
5999;SDS011;3028;49.468;7.694;2023-05-15T10:22:10;4.53;;;4.13;;
5999;SDS011;3028;49.468;7.694;2023-05-15T10:24:13;4.28;;;3.97;;
5999;SDS011;3028;49.468;7.694;2023-05-15T10:26:21;5.40;;;5.00;;
5999;SDS011;3028;49.468;7.694;2023-05-15T10:28:24;6.10;;;5.50;;
5999;SDS011;3028;49.468;7.694;2023-05-15T10:30:27;4.82;;;4.43;;
5999;SDS011;3028;49.468;7.694;2023-05-15T10:32:30;4.18;;;3.80;;
5999;SDS011;3028;49.468;7.694;2023-05-15T10:34:33;4.00;;;3.70;;
5999;SDS011;3028;49.468;7.694;2023-05-15T10:36:36;3.28;;;2.97;;
5999;SDS011;3028;49.468;7.694;2023-05-15T10:38:38;3.83;;;3.45;;
5999;SDS011;3028;49.468;7.694;2023-05-15T10:40:41;3.83;;;2.90;;
5999;SDS011;3028;49.468;7.694;2023-05-15T10:42:44;3.15;;;2.75;;
5999;SDS011;3028;49.468;7.694;2023-05-15T10:44:47;2.95;;;2.75;;
5999;SDS011;3028;49.468;7.694;2023-05-15T10:46:49;3.97;;;3.67;;
5999;SDS011;3028;49.468;7.694;2023-05-15T10:48:52;6.25;;;3.67;;
5999;SDS011;3028;49.468;7.694;2023-05-15T10:50:54;3.85;;;3.35;;
5999;SDS011;3028;49.468;7.694;2023-05-15T10:52:56;6.45;;;3.67;;
5999;SDS011;3028;49.468;7.694;2023-05-15T10:54:58;3.80;;;3.50;;
5999;SDS011;3028;49.468;7.694;2023-05-15T10:57:00;3.25;;;3.00;;
5999;SDS011;3028;49.468;7.694;2023-05-15T10:59:06;3.30;;;2.40;;
5999;SDS011;3028;49.468;7.694;2023-05-15T11:01:27;2.65;;;2.45;;
5999;SDS011;3028;49.468;7.694;2023-05-15T11:03:38;3.78;;;2.35;;
5999;SDS011;3028;49.468;7.694;2023-05-15T11:06:06;3.33;;;2.53;;
5999;SDS011;3028;49.468;7.694;2023-05-15T11:12:53;4.22;;;3.92;;
5999;SDS011;3028;49.468;7.694;2023-05-15T11:17:04;2.88;;;2.65;;
5999;SDS011;3028;49.468;7.694;2023-05-15T11:19:30;3.03;;;2.83;;
5999;SDS011;3028;49.468;7.694;2023-05-15T11:21:43;3.20;;;3.00;;
5999;SDS011;3028;49.468;7.694;2023-05-15T11:23:47;3.90;;;3.63;;
5999;SDS011;3028;49.468;7.694;2023-05-15T11:25:52;7.97;;;5.85;;
5999;SDS011;3028;49.468;7.694;2023-05-15T11:27:57;14.88;;;7.55;;
5999;SDS011;3028;49.468;7.694;2023-05-15T11:34:40;10.50;;;9.68;;
5999;SDS011;3028;49.468;7.694;2023-05-15T11:36:42;8.40;;;7.80;;
5999;SDS011;3028;49.468;7.694;2023-05-15T11:38:44;6.60;;;6.10;;
5999;SDS011;3028;49.468;7.694;2023-05-15T11:40:52;4.95;;;3.75;;
5999;SDS011;3028;49.468;7.694;2023-05-15T11:42:59;2.65;;;2.45;;
5999;SDS011;3028;49.468;7.694;2023-05-15T11:45:01;2.53;;;2.33;;
5999;SDS011;3028;49.468;7.694;2023-05-15T11:47:08;2.97;;;2.67;;
5999;SDS011;3028;49.468;7.694;2023-05-15T11:49:10;2.22;;;1.95;;
5999;SDS011;3028;49.468;7.694;2023-05-15T11:51:20;1.70;;;1.58;;
5999;SDS011;3028;49.468;7.694;2023-05-15T11:53:25;2.17;;;1.98;;
5999;SDS011;3028;49.468;7.694;2023-05-15T11:55:28;2.03;;;1.88;;
5999;SDS011;3028;49.468;7.694;2023-05-15T11:57:31;1.95;;;1.83;;
5999;SDS011;3028;49.468;7.694;2023-05-15T11:59:33;2.22;;;2.03;;
5999;SDS011;3028;49.468;7.694;2023-05-15T12:01:39;1.83;;;1.73;;
5999;SDS011;3028;49.468;7.694;2023-05-15T12:03:41;2.25;;;1.95;;
5999;SDS011;3028;49.468;7.694;2023-05-15T12:05:44;3.88;;;2.78;;
5999;SDS011;3028;49.468;7.694;2023-05-15T12:07:59;3.28;;;2.95;;
5999;SDS011;3028;49.468;7.694;2023-05-15T12:10:01;3.20;;;2.97;;
5999;SDS011;3028;49.468;7.694;2023-05-15T12:12:04;3.03;;;2.83;;
5999;SDS011;3028;49.468;7.694;2023-05-15T12:14:11;2.80;;;2.60;;
5999;SDS011;3028;49.468;7.694;2023-05-15T12:16:13;2.97;;;2.72;;
5999;SDS011;3028;49.468;7.694;2023-05-15T12:18:14;1.70;;;1.60;;
5999;SDS011;3028;49.468;7.694;2023-05-15T12:20:17;2.45;;;1.92;;
5999;SDS011;3028;49.468;7.694;2023-05-15T12:22:19;3.28;;;1.73;;
5999;SDS011;3028;49.468;7.694;2023-05-15T12:24:22;4.45;;;1.20;;
5999;SDS011;3028;49.468;7.694;2023-05-15T12:26:24;1.50;;;1.40;;
5999;SDS011;3028;49.468;7.694;2023-05-15T12:28:26;1.63;;;1.38;;
5999;SDS011;3028;49.468;7.694;2023-05-15T12:30:30;1.77;;;1.60;;
5999;SDS011;3028;49.468;7.694;2023-05-15T12:32:33;2.92;;;1.50;;
5999;SDS011;3028;49.468;7.694;2023-05-15T12:34:35;2.13;;;1.42;;
5999;SDS011;3028;49.468;7.694;2023-05-15T12:36:39;1.50;;;1.40;;
5999;SDS011;3028;49.468;7.694;2023-05-15T12:38:41;2.00;;;1.75;;
5999;SDS011;3028;49.468;7.694;2023-05-15T12:40:43;3.17;;;2.42;;
5999;SDS011;3028;49.468;7.694;2023-05-15T12:42:50;2.75;;;1.50;;
5999;SDS011;3028;49.468;7.694;2023-05-15T12:44:56;5.85;;;1.75;;
5999;SDS011;3028;49.468;7.694;2023-05-15T12:46:58;2.28;;;2.08;;
5999;SDS011;3028;49.468;7.694;2023-05-15T12:49:00;3.10;;;2.22;;
5999;SDS011;3028;49.468;7.694;2023-05-15T12:51:05;3.45;;;3.15;;
5999;SDS011;3028;49.468;7.694;2023-05-15T12:53:07;2.95;;;1.98;;
5999;SDS011;3028;49.468;7.694;2023-05-15T12:55:13;2.22;;;2.03;;
5999;SDS011;3028;49.468;7.694;2023-05-15T12:57:16;2.25;;;2.00;;
5999;SDS011;3028;49.468;7.694;2023-05-15T12:59:18;3.47;;;2.17;;
5999;SDS011;3028;49.468;7.694;2023-05-15T13:01:20;2.95;;;2.65;;
5999;SDS011;3028;49.468;7.694;2023-05-15T13:03:22;3.22;;;2.92;;
5999;SDS011;3028;49.468;7.694;2023-05-15T13:05:26;2.90;;;2.70;;
5999;SDS011;3028;49.468;7.694;2023-05-15T13:07:29;2.83;;;2.63;;
5999;SDS011;3028;49.468;7.694;2023-05-15T13:09:31;3.78;;;2.88;;
5999;SDS011;3028;49.468;7.694;2023-05-15T13:11:34;3.78;;;2.60;;
5999;SDS011;3028;49.468;7.694;2023-05-15T13:13:40;3.33;;;3.03;;